Flight Track Log - Related Links

Times and Time Zones

All times are in EST time to prevent confusion due to time zone crossing. See the JBU1783 flight status page for this flight to view local times or setup timezone preferences in your user account.

Time Position Orientation Groundspeed Altitude Reporting Facility
EST Latitude Longitude Course Direction KTS MPH feet Rate Location/Type
Sat 06:19:04 PM 28.4432 -81.2955 17° North 166 191 1,000  Level FlightAware ADS-B
Sat 06:19:35 PM 28.4624 -81.2757 54° Northeast 190 219 2,000 1,529 Climbing FlightAware ADS-B
Sat 06:19:55 PM 28.4736 -81.2578 56° Northeast 216 249 2,300 1,077 Climbing FlightAware ADS-B
Sat 06:20:14 PM 28.4852 -81.2383 57° Northeast 246 283 2,700 1,200 Climbing FlightAware ADS-B
Sat 06:20:25 PM 28.4902 -81.2266 72° East 261 300 2,900 1,714 Climbing FlightAware ADS-B
Sat 06:20:35 PM 28.4926 -81.2133 85° East 268 308 3,300 2,800 Climbing FlightAware ADS-B
Sat 06:20:55 PM 28.4946 -81.1841 85° East 276 318 4,300 2,800 Climbing FlightAware ADS-B
Sat 06:21:05 PM 28.4948 -81.1702 96° East 276 318 4,700 2,400 Climbing FlightAware ADS-B
Sat 06:21:15 PM 28.4917 -81.1546 110° East 278 320 5,100 2,842 Climbing FlightAware ADS-B
Sat 06:21:24 PM 28.4875 -81.1454 123° Southeast 281 323 5,600 3,000 Climbing FlightAware ADS-B
Sat 06:21:45 PM 28.4709 -81.1175 124° Southeast 287 330 6,600 2,634 Climbing FlightAware ADS-B
Sat 06:22:05 PM 28.4567 -81.0939 124° Southeast 297 342 7,400 2,400 Climbing FlightAware ADS-B
Sat 06:22:25 PM 28.4396 -81.0648 123° Southeast 308 354 8,200 2,571 Climbing FlightAware ADS-B
Sat 06:22:54 PM 28.4150 -81.0270 132° Southeast 313 360 9,500 2,833 Climbing FlightAware ADS-B
Sat 06:23:01 PM 28.4145 -81.0263 131° Southeast 311 358 9,900 1,463 Climbing FlightAware ADS-B (KSFB)
Sat 06:23:35 PM 28.3747 -80.9778 133° Southeast 346 398 10,500 938 Climbing FlightAware ADS-B
Sat 06:24:05 PM 28.3408 -80.9365 133° Southeast 379 436 10,900 1,100 Climbing FlightAware ADS-B
Sat 06:24:35 PM 28.3026 -80.8896 133° Southeast 401 461 11,600 1,800 Climbing FlightAware ADS-B
Sat 06:25:15 PM 28.2499 -80.8345 150° Southeast 407 468 13,000 2,314 Climbing FlightAware ADS-B
Sat 06:25:45 PM 28.1966 -80.8024 152° Southeast 406 467 14,300 2,500 Climbing FlightAware ADS-B
Sat 06:26:15 PM 28.1464 -80.7721 152° Southeast 404 465 15,500 1,967 Climbing FlightAware ADS-B
Sat 06:26:46 PM 28.0974 -80.7425 152° Southeast 417 480 16,300 1,672 Climbing FlightAware ADS-B
Sat 06:27:16 PM 28.0421 -80.7091 152° Southeast 424 488 17,200 1,971 Climbing FlightAware ADS-B
Sat 06:27:56 PM 27.9736 -80.6677 152° Southeast 423 487 18,600 2,127 Climbing FlightAware ADS-B
Sat 06:28:35 PM 27.9051 -80.6263 152° Southeast 423 487 20,000 1,714 Climbing FlightAware ADS-B
Sat 06:29:06 PM 27.8533 -80.5951 152° Southeast 431 496 20,600 1,377 Climbing FlightAware ADS-B
Sat 06:29:36 PM 27.7990 -80.5625 152° Southeast 434 499 21,400 1,300 Climbing FlightAware ADS-B
Sat 06:30:06 PM 27.7494 -80.5327 152° Southeast 444 511 21,900 1,130 Climbing FlightAware ADS-B
Sat 06:30:45 PM 27.6830 -80.4944 157° South 445 512 22,700 1,319 Climbing FlightAware ADS-B
Sat 06:31:37 PM 27.5719 -80.4483 160° South 447 514 23,900 1,171 Climbing FlightAware ADS-B
Sat 06:32:07 PM 27.5123 -80.4240 160° South 455 524 24,300 1,100 Climbing FlightAware ADS-B
Sat 06:32:37 PM 27.4545 -80.4007 160° South 456 525 25,000 1,433 Climbing FlightAware ADS-B
Sat 06:33:14 PM 27.3803 -80.3712 160° South 453 521 25,900 1,217 Climbing FlightAware ADS-B
Sat 06:33:46 PM 27.3155 -80.3454 161° South 458 527 26,400 952 Climbing FlightAware ADS-B
Sat 06:34:17 PM 27.2552 -80.3215 161° South 463 533 26,900 878 Climbing FlightAware ADS-B
Sat 06:35:08 PM 27.1506 -80.2802 161° South 472 543 27,600 702 Climbing FlightAware ADS-B
Sat 06:35:51 PM 27.0789 -80.2533 161° South 462 532 28,000 874 Climbing Miami Center
Sat 06:36:51 PM 26.9547 -80.2056 161° South 467 537 29,100 1,071 Climbing Miami Center
Sat 06:42:23 PM 26.1766 -79.8985 160° South 448 516 35,000 843 Climbing FlightAware ADS-B
Sat 06:43:51 PM 26.1161 -79.8742 160° South 447 514 35,000  Level Miami Center
Sat 06:44:51 PM 25.9981 -79.8272 160° South 447 514 35,000 -50 Level Miami Center
Sat 06:45:51 PM 25.8839 -79.7828 161° South 441 507 34,900  Descending Miami Center
Sat 06:46:51 PM 25.7658 -79.7361 160° South 447 514 35,000 50 Climbing Miami Center
Sat 06:47:51 PM 25.6475 -79.6917 161° South 447 514 35,000  Level Miami Center
Sat 06:48:51 PM 25.5314 -79.6500 162° South 442 509 35,000  Level Miami Center
Sat 06:49:51 PM 25.4172 -79.6058 161° South 442 509 35,000  Level Miami Center
Sat 06:50:51 PM 25.2992 -79.5594 160° South 442 509 35,000  Level Miami Center
Sat 06:51:51 PM 25.1828 -79.5156 161° South 442 509 35,000  Level Miami Center
Sat 06:53:03 PM 25.0414 -79.4806 167° South 436 502 35,000  Level Miami Center
Sat 06:54:03 PM 24.9144 -79.4503 168° South 430 495 35,000  Level Miami Center
Sat 06:55:03 PM 24.7939 -79.4250 169° South 430 495 35,000 -50 Level Miami Center
Sat 06:56:03 PM 24.6772 -79.3972 168° South 430 495 34,900 -50 Descending Miami Center
Sat 06:57:03 PM 24.5628 -79.3722 169° South 430 495 34,900 50 Level Miami Center
Sat 06:58:03 PM 24.4439 -79.3492 170° South 430 495 35,000 50 Climbing Miami Center
Sat 06:59:03 PM 24.3275 -79.3242 169° South 430 495 35,000  Level Miami Center
Sat 07:00:03 PM 24.2108 -79.2944 167° South 430 495 35,000  Level Miami Center
Sat 07:01:03 PM 24.0922 -79.2694 169° South 430 495 35,000  Level Miami Center
Sat 07:03:00 PM 23.8744 -79.2053 173° South  Level Estimated
Sat 07:10:00 PM 23.0805 -79.0322 169° South  Level FlightAware Approximate
Sat 07:11:00 PM 22.9671 -79.0077 169° South  Level FlightAware Approximate
Sat 07:12:00 PM 22.8537 -78.9832 169° South  Level FlightAware Approximate
Sat 07:13:00 PM 22.7403 -78.9587 169° South  Level FlightAware Approximate
Sat 07:14:00 PM 22.6268 -78.9343 169° South  Level FlightAware Approximate
Sat 07:15:00 PM 22.5134 -78.9099 169° South  Level FlightAware Approximate
Sat 07:16:00 PM 22.3999 -78.8855 169° South  Level FlightAware Approximate
Sat 07:17:00 PM 22.2865 -78.8612 169° South  Level FlightAware Approximate
Sat 07:18:00 PM 22.1730 -78.8369 169° South  Level FlightAware Approximate
Sat 07:19:00 PM 22.0596 -78.8127 169° South  Level FlightAware Approximate
Sat 07:20:00 PM 21.9815 -78.7952 167° South  Level FlightAware Approximate
Sat 07:21:00 PM 21.8690 -78.7663 167° South  Level FlightAware Approximate
Sat 07:22:00 PM 21.7565 -78.7374 167° South  Level FlightAware Approximate
Sat 07:23:00 PM 21.6440 -78.7085 167° South  Level FlightAware Approximate
Sat 07:24:00 PM 21.5315 -78.6796 167° South  Level FlightAware Approximate
Sat 07:25:00 PM 21.4190 -78.6509 167° South  Level FlightAware Approximate
Sat 07:26:00 PM 21.3064 -78.6221 167° South  Level FlightAware Approximate
Sat 07:27:00 PM 21.1939 -78.5934 167° South  Level FlightAware Approximate
Sat 07:28:00 PM 21.0814 -78.5648 167° South  Level FlightAware Approximate
Sat 07:29:00 PM 20.9689 -78.5362 167° South  Level FlightAware Approximate
Sat 07:30:00 PM 20.8563 -78.5076 167° South  Level FlightAware Approximate
Sat 07:31:00 PM 20.7438 -78.4791 167° South  Level FlightAware Approximate
Sat 07:32:00 PM 20.6312 -78.4506 167° South  Level FlightAware Approximate
Sat 07:33:00 PM 20.5187 -78.4222 167° South  Level FlightAware Approximate
Sat 07:34:00 PM 20.4061 -78.3938 167° South  Level FlightAware Approximate
Sat 07:35:00 PM 20.2936 -78.3654 167° South  Level FlightAware Approximate
Sat 07:36:00 PM 20.1810 -78.3371 167° South  Level FlightAware Approximate
Sat 07:37:00 PM 20.0684 -78.3089 167° South  Level FlightAware Approximate
Sat 07:38:00 PM 19.9559 -78.2806 167° South  Level FlightAware Approximate
Sat 07:39:00 PM 19.8433 -78.2522 167° South  Level FlightAware Approximate
Sat 07:40:00 PM 19.7308 -78.2239 167° South  Level FlightAware Approximate
Sat 07:41:00 PM 19.6182 -78.1956 167° South  Level FlightAware Approximate
Sat 07:42:00 PM 19.5057 -78.1674 167° South  Level FlightAware Approximate
Sat 07:43:00 PM 19.3931 -78.1392 167° South  Level FlightAware Approximate
Sat 07:44:00 PM 19.2806 -78.1110 167° South  Level FlightAware Approximate
Sat 07:45:00 PM 19.1680 -78.0828 167° South  Level FlightAware Approximate
Sat 07:46:00 PM 19.0554 -78.0547 167° South  Level FlightAware Approximate
Sat 07:47:00 PM 18.9429 -78.0267 167° South  Level FlightAware Approximate
Sat 07:48:00 PM 18.8303 -77.9987 167° South  Level FlightAware Approximate
Sat 07:49:00 PM 18.7177 -77.9707 167° South  Level FlightAware Approximate
Sat 07:50:00 PM 18.6051 -77.9427 167° South  Level FlightAware Approximate
Sat 07:51:00 PM 18.4926 -77.9144 164° South  Level FlightAware Approximate
Sat 07:52:00 PM 18.3816 -77.8804 164° South  Level FlightAware Approximate
Sat 07:53:00 PM 18.2705 -77.8465 164° South  Level FlightAware Approximate
Sat 07:54:00 PM 18.1594 -77.8127 164° South  Level FlightAware Approximate
Sat 07:55:00 PM 18.0483 -77.7788 164° South  Level FlightAware Approximate
Sat 07:56:00 PM 17.9372 -77.7450 164° South  Level FlightAware Approximate
Sat 07:57:00 PM 17.8261 -77.7113 164° South  Level FlightAware Approximate
Sat 07:58:00 PM 17.7150 -77.6776 164° South  Level FlightAware Approximate
Sat 07:59:00 PM 17.6038 -77.6439 164° South  Level FlightAware Approximate
Sat 08:00:00 PM 17.4927 -77.6103 164° South  Level FlightAware Approximate
Sat 08:01:00 PM 17.3816 -77.5767 164° South  Level FlightAware Approximate
Sat 08:02:00 PM 17.2705 -77.5432 164° South  Level FlightAware Approximate
Sat 08:03:00 PM 17.1593 -77.5097 164° South  Level FlightAware Approximate
Sat 08:04:00 PM 17.0482 -77.4762 164° South  Level FlightAware Approximate
Sat 08:05:00 PM 16.9370 -77.4428 164° South  Level FlightAware Approximate
Sat 08:06:00 PM 16.8258 -77.4094 164° South  Level FlightAware Approximate
Sat 08:07:00 PM 16.7147 -77.3761 164° South  Level FlightAware Approximate
Sat 08:08:00 PM 16.6035 -77.3428 164° South  Level FlightAware Approximate
Sat 08:09:00 PM 16.4923 -77.3095 164° South  Level FlightAware Approximate
Sat 08:10:00 PM 16.3812 -77.2763 164° South  Level FlightAware Approximate
Sat 08:11:00 PM 16.2700 -77.2431 164° South  Level FlightAware Approximate
Sat 08:12:00 PM 16.1588 -77.2099 164° South  Level FlightAware Approximate
Sat 08:13:00 PM 16.0476 -77.1768 164° South  Level FlightAware Approximate
Sat 08:14:00 PM 15.9364 -77.1437 164° South  Level FlightAware Approximate
Sat 08:15:00 PM 15.8252 -77.1107 164° South  Level FlightAware Approximate
Sat 08:16:00 PM 15.7140 -77.0777 164° South  Level FlightAware Approximate
Sat 08:17:00 PM 15.6028 -77.0447 164° South  Level FlightAware Approximate
Sat 08:18:00 PM 15.4916 -77.0118 164° South  Level FlightAware Approximate
Sat 08:19:00 PM 15.3803 -76.9789 164° South  Level FlightAware Approximate
Sat 08:20:00 PM 15.2691 -76.9460 164° South  Level FlightAware Approximate
Sat 08:21:00 PM 15.1579 -76.9132 164° South  Level FlightAware Approximate
Sat 08:22:00 PM 15.0466 -76.8804 164° South  Level FlightAware Approximate
Sat 08:23:00 PM 14.9340 -76.8535 169° South  Level FlightAware Approximate
Sat 08:24:00 PM 14.8204 -76.8310 169° South  Level FlightAware Approximate
Sat 08:25:00 PM 14.7069 -76.8084 169° South  Level FlightAware Approximate
Sat 08:26:00 PM 14.5933 -76.7859 169° South  Level FlightAware Approximate
Sat 08:27:00 PM 14.4797 -76.7634 169° South  Level FlightAware Approximate
Sat 08:28:00 PM 14.3661 -76.7409 169° South  Level FlightAware Approximate
Sat 08:29:00 PM 14.2525 -76.7185 169° South  Level FlightAware Approximate
Sat 08:30:00 PM 14.1389 -76.6960 169° South  Level FlightAware Approximate
Sat 08:31:00 PM 14.0253 -76.6736 169° South  Level FlightAware Approximate
Sat 08:32:00 PM 13.9117 -76.6512 169° South  Level FlightAware Approximate
Sat 08:33:00 PM 13.7981 -76.6288 169° South  Level FlightAware Approximate
Sat 08:34:00 PM 13.6845 -76.6065 169° South  Level FlightAware Approximate
Sat 08:35:00 PM 13.5709 -76.5842 169° South  Level FlightAware Approximate
Sat 08:36:00 PM 13.4574 -76.5611 169° South  Level FlightAware Approximate
Sat 08:37:00 PM 13.3440 -76.5380 169° South  Level FlightAware Approximate
Sat 08:38:00 PM 13.2305 -76.5150 169° South  Level FlightAware Approximate
Sat 08:39:00 PM 13.1171 -76.4919 169° South  Level FlightAware Approximate
Sat 08:40:00 PM 13.0036 -76.4689 169° South  Level FlightAware Approximate
Sat 08:41:00 PM 12.8902 -76.4459 169° South  Level FlightAware Approximate
Sat 08:42:00 PM 12.7767 -76.4229 169° South  Level FlightAware Approximate
Sat 08:43:00 PM 12.6632 -76.3999 169° South  Level FlightAware Approximate
Sat 08:44:00 PM 12.5497 -76.3770 169° South  Level FlightAware Approximate
Sat 08:45:00 PM 12.4363 -76.3541 169° South  Level FlightAware Approximate
Sat 08:46:00 PM 12.3228 -76.3312 169° South  Level FlightAware Approximate
Sat 08:47:00 PM 12.2093 -76.3083 169° South  Level FlightAware Approximate
Sat 08:48:00 PM 12.0958 -76.2855 169° South  Level FlightAware Approximate
Sat 08:49:00 PM 11.9824 -76.2626 169° South  Level FlightAware Approximate
Sat 08:50:00 PM 11.8689 -76.2398 169° South  Level FlightAware Approximate
Sat 08:51:00 PM 11.7554 -76.2170 169° South  Level FlightAware Approximate
Sat 08:52:00 PM 11.6419 -76.1942 169° South  Level FlightAware Approximate
Sat 08:53:00 PM 11.5284 -76.1715 169° South  Level FlightAware Approximate
Sat 08:54:00 PM 11.4149 -76.1487 169° South  Level FlightAware Approximate
Sat 08:55:00 PM 11.3014 -76.1260 169° South  Level FlightAware Approximate
Sat 08:56:00 PM 11.1880 -76.1033 169° South  Level FlightAware Approximate
Sat 08:57:00 PM 11.0745 -76.0806 169° South  Level FlightAware Approximate
Sat 08:58:00 PM 10.9610 -76.0579 169° South  Level FlightAware Approximate
Sat 08:59:00 PM 10.8475 -76.0353 169° South  Level FlightAware Approximate
Sat 09:00:00 PM 10.7340 -76.0126 169° South  Level FlightAware Approximate
Sat 09:01:00 PM 10.6205 -75.9900 169° South  Level FlightAware Approximate
Sat 09:02:00 PM 10.5070 -75.9674 169° South  Level FlightAware Approximate
Sat 09:03:00 PM 10.3935 -75.9448 169° South  Level FlightAware Approximate
Sat 09:04:00 PM 10.2800 -75.9223 169° South  Level FlightAware Approximate
Sat 09:05:00 PM 10.1664 -75.8997 169° South  Level FlightAware Approximate
Sat 09:06:00 PM 10.0529 -75.8772 169° South  Level FlightAware Approximate
Sat 09:07:00 PM 9.9395 -75.8545 169° South  Level FlightAware Approximate
Sat 09:08:00 PM 9.8260 -75.8318 169° South  Level FlightAware Approximate
Sat 09:09:00 PM 9.7125 -75.8090 169° South  Level FlightAware Approximate
Sat 09:10:00 PM 9.5991 -75.7863 169° South  Level FlightAware Approximate
Sat 09:11:00 PM 9.4856 -75.7636 169° South  Level FlightAware Approximate
Sat 09:12:00 PM 9.3721 -75.7409 169° South  Level FlightAware Approximate
Sat 09:13:00 PM 9.2586 -75.7182 169° South  Level FlightAware Approximate
Sat 09:14:00 PM 9.1452 -75.6956 169° South  Level FlightAware Approximate
Sat 09:15:00 PM 9.0317 -75.6729 169° South  Level FlightAware Approximate
Sat 09:16:00 PM 8.9182 -75.6503 169° South  Level FlightAware Approximate
Sat 09:17:00 PM 8.8045 -75.6289 169° South  Level FlightAware Approximate
Sat 09:18:00 PM 8.6908 -75.6076 169° South  Level FlightAware Approximate
Sat 09:19:00 PM 8.5771 -75.5862 169° South  Level FlightAware Approximate
Sat 09:20:00 PM 8.4634 -75.5649 169° South  Level FlightAware Approximate
Sat 09:21:00 PM 8.3497 -75.5435 169° South  Level FlightAware Approximate
Sat 09:22:00 PM 8.2359 -75.5222 169° South  Level FlightAware Approximate
Sat 09:23:00 PM 8.1222 -75.5009 169° South  Level FlightAware Approximate
Sat 09:24:00 PM 8.0085 -75.4797 169° South  Level FlightAware Approximate
Sat 09:25:00 PM 7.8948 -75.4584 170° South  Level FlightAware Approximate
Sat 09:26:00 PM 7.7812 -75.4360 169° South  Level FlightAware Approximate
Sat 09:27:00 PM 7.6679 -75.4130 169° South  Level FlightAware Approximate
Sat 09:28:00 PM 7.5545 -75.3900 169° South  Level FlightAware Approximate
Sat 09:29:00 PM 7.4411 -75.3671 169° South  Level FlightAware Approximate
Sat 09:30:00 PM 7.3277 -75.3441 169° South  Level FlightAware Approximate
Sat 09:31:00 PM 7.2143 -75.3211 169° South  Level FlightAware Approximate
Sat 09:32:00 PM 7.1009 -75.2982 169° South  Level FlightAware Approximate
Sat 09:33:00 PM 6.9875 -75.2752 169° South  Level FlightAware Approximate
Sat 09:34:00 PM 6.8741 -75.2523 169° South  Level FlightAware Approximate
Sat 09:35:00 PM 6.7607 -75.2294 169° South  Level FlightAware Approximate
Sat 09:36:00 PM 6.6473 -75.2065 169° South  Level FlightAware Approximate
Sat 09:37:00 PM 6.5339 -75.1836 169° South  Level FlightAware Approximate
Sat 09:38:00 PM 6.4205 -75.1608 169° South  Level FlightAware Approximate
Sat 09:39:00 PM 6.3071 -75.1381 169° South  Level FlightAware Approximate
Sat 09:40:00 PM 6.1936 -75.1154 169° South  Level FlightAware Approximate
Sat 09:41:00 PM 6.0814 -75.0882 162° South  Level FlightAware Approximate
Sat 09:42:00 PM 5.9675 -75.0735 169° South  Level FlightAware Approximate
Sat 09:43:00 PM 5.8540 -75.0508 169° South  Level FlightAware Approximate
Sat 09:44:00 PM 5.7407 -75.0278 168° South  Level FlightAware Approximate
Sat 09:45:00 PM 5.6276 -75.0035 168° South  Level FlightAware Approximate
Sat 09:46:00 PM 5.5144 -74.9795 169° South  Level FlightAware Approximate
Sat 09:47:00 PM 5.4010 -74.9568 169° South  Level FlightAware Approximate
Sat 09:48:00 PM 5.2875 -74.9342 169° South  Level FlightAware Approximate
Sat 09:49:00 PM 5.1853 -74.8946 124° Southeast  Level FlightAware Approximate
Sat 09:50:00 PM 5.1210 -74.7981 124° Southeast  Level FlightAware Approximate
Sat 09:51:00 PM 5.0567 -74.7016 124° Southeast  Level FlightAware Approximate
Sat 09:52:00 PM 4.9936 -74.6043 123° Southeast  Level FlightAware Approximate
Sat 09:53:00 PM 4.9302 -74.5045 123° Southeast  Level FlightAware Approximate
Sat 09:54:00 PM 4.8674 -74.4044 122° Southeast  Level FlightAware Approximate
Sat 09:55:00 PM 4.8009 -74.3068 127° Southeast  Level FlightAware Approximate
Sat 09:56:00 PM 4.7333 -74.2112 90° East  Level FlightAware Approximate
Sat 09:57:00 PM 4.7016 -74.1469 117° Southeast  Level Estimated
Sat 09:58:00 PM 4.7016 -74.1469 117° Southeast  Level Estimated
Sat 09:59:00 PM 4.7016 -74.1469 117° Southeast  Level Estimated
Sat 10:00:00 PM 4.7016 -74.1469 117° Southeast  Level Estimated
Sat 10:01:00 PM 4.7016 -74.1469 117° Southeast  Level Estimated
Sat 10:02:00 PM 4.7016 -74.1469 117° Southeast  Level Estimated
Sat 10:03:00 PM 4.7016 -74.1469 117° Southeast  Level Estimated
Sat 10:04:00 PM 4.7016 -74.1469 117° Southeast  Level Estimated
Sat 10:05:00 PM 4.7016 -74.1469 117° Southeast  Level Estimated
Sat 10:06:00 PM 4.7016 -74.1469 117° Southeast  Level Estimated
Sat 10:07:00 PM 4.7016 -74.1469 117° Southeast  Level Estimated

Login

Don't have an account? Register now (free) for customized features, flight alerts, and more!